<?xml version="1.0" encoding="UTF-8" ?>
<gpx version="1.1" xmlns:xsi="http://www.w3.org/2001/XMLSchema-instance" 
    xmlns="http://www.topografix.com/GPX/1/1" 
    xsi:schemaLocation="http://www.topografix.com/GPX/1/1 http://www.topografix.com/GPX/1/1/gpx.xsd" 
    creator="Openrunner - https://www.openrunner.com" >	<trk>
						<name>14979826-Randos des Sans-Soucis</name>
						<trkseg>
					<trkpt lat="45.588380" lon="4.400570">
						<ele>620</ele>
						<time>2022-06-17T15:39:23Z</time>
					</trkpt>
					<trkpt lat="45.588240" lon="4.400710">
						<ele>621</ele>
						<time>2022-06-17T15:39:46Z</time>
					</trkpt>
					<trkpt lat="45.588150" lon="4.400920">
						<ele>622</ele>
						<time>2022-06-17T15:40:09Z</time>
					</trkpt>
					<trkpt lat="45.587920" lon="4.400970">
						<ele>624</ele>
						<time>2022-06-17T15:40:40Z</time>
					</trkpt>
					<trkpt lat="45.587850" lon="4.401010">
						<ele>624</ele>
						<time>2022-06-17T15:40:50Z</time>
					</trkpt>
					<trkpt lat="45.587650" lon="4.401310">
						<ele>626</ele>
						<time>2022-06-17T15:41:29Z</time>
					</trkpt>
					<trkpt lat="45.587540" lon="4.401370">
						<ele>626</ele>
						<time>2022-06-17T15:41:44Z</time>
					</trkpt>
					<trkpt lat="45.587410" lon="4.401350">
						<ele>626</ele>
						<time>2022-06-17T15:42:02Z</time>
					</trkpt>
					<trkpt lat="45.586990" lon="4.401130">
						<ele>623</ele>
						<time>2022-06-17T15:43:01Z</time>
					</trkpt>
					<trkpt lat="45.586480" lon="4.400900">
						<ele>620</ele>
						<time>2022-06-17T15:44:13Z</time>
					</trkpt>
					<trkpt lat="45.585900" lon="4.400590">
						<ele>617</ele>
						<time>2022-06-17T15:45:35Z</time>
					</trkpt>
					<trkpt lat="45.585670" lon="4.400600">
						<ele>617</ele>
						<time>2022-06-17T15:46:06Z</time>
					</trkpt>
					<trkpt lat="45.585520" lon="4.400590">
						<ele>616</ele>
						<time>2022-06-17T15:46:26Z</time>
					</trkpt>
					<trkpt lat="45.585260" lon="4.400510">
						<ele>615</ele>
						<time>2022-06-17T15:47:02Z</time>
					</trkpt>
					<trkpt lat="45.585160" lon="4.400500">
						<ele>615</ele>
						<time>2022-06-17T15:47:15Z</time>
					</trkpt>
					<trkpt lat="45.585090" lon="4.400530">
						<ele>615</ele>
						<time>2022-06-17T15:47:25Z</time>
					</trkpt>
					<trkpt lat="45.585030" lon="4.400630">
						<ele>616</ele>
						<time>2022-06-17T15:47:37Z</time>
					</trkpt>
					<trkpt lat="45.584930" lon="4.401070">
						<ele>619</ele>
						<time>2022-06-17T15:48:20Z</time>
					</trkpt>
					<trkpt lat="45.584830" lon="4.401410">
						<ele>621</ele>
						<time>2022-06-17T15:48:55Z</time>
					</trkpt>
					<trkpt lat="45.584630" lon="4.402010">
						<ele>624</ele>
						<time>2022-06-17T15:49:57Z</time>
					</trkpt>
					<trkpt lat="45.584530" lon="4.402370">
						<ele>625</ele>
						<time>2022-06-17T15:50:33Z</time>
					</trkpt>
					<trkpt lat="45.584390" lon="4.403050">
						<ele>626</ele>
						<time>2022-06-17T15:51:39Z</time>
					</trkpt>
					<trkpt lat="45.584410" lon="4.403740">
						<ele>628</ele>
						<time>2022-06-17T15:52:44Z</time>
					</trkpt>
					<trkpt lat="45.584400" lon="4.404000">
						<ele>629</ele>
						<time>2022-06-17T15:53:08Z</time>
					</trkpt>
					<trkpt lat="45.584300" lon="4.404430">
						<ele>630</ele>
						<time>2022-06-17T15:53:50Z</time>
					</trkpt>
					<trkpt lat="45.584170" lon="4.404810">
						<ele>631</ele>
						<time>2022-06-17T15:54:30Z</time>
					</trkpt>
					<trkpt lat="45.584110" lon="4.404940">
						<ele>631</ele>
						<time>2022-06-17T15:54:44Z</time>
					</trkpt>
					<trkpt lat="45.583920" lon="4.405240">
						<ele>631</ele>
						<time>2022-06-17T15:55:22Z</time>
					</trkpt>
					<trkpt lat="45.583720" lon="4.405620">
						<ele>633</ele>
						<time>2022-06-17T15:56:07Z</time>
					</trkpt>
					<trkpt lat="45.583600" lon="4.405720">
						<ele>633</ele>
						<time>2022-06-17T15:56:25Z</time>
					</trkpt>
					<trkpt lat="45.583540" lon="4.405730">
						<ele>633</ele>
						<time>2022-06-17T15:56:33Z</time>
					</trkpt>
					<trkpt lat="45.583430" lon="4.405690">
						<ele>632</ele>
						<time>2022-06-17T15:56:48Z</time>
					</trkpt>
					<trkpt lat="45.583400" lon="4.405800">
						<ele>633</ele>
						<time>2022-06-17T15:56:59Z</time>
					</trkpt>
					<trkpt lat="45.583290" lon="4.405940">
						<ele>633</ele>
						<time>2022-06-17T15:57:19Z</time>
					</trkpt>
					<trkpt lat="45.583220" lon="4.406060">
						<ele>633</ele>
						<time>2022-06-17T15:57:34Z</time>
					</trkpt>
					<trkpt lat="45.583110" lon="4.406320">
						<ele>634</ele>
						<time>2022-06-17T15:58:02Z</time>
					</trkpt>
					<trkpt lat="45.583050" lon="4.406530">
						<ele>635</ele>
						<time>2022-06-17T15:58:23Z</time>
					</trkpt>
					<trkpt lat="45.582940" lon="4.406760">
						<ele>634</ele>
						<time>2022-06-17T15:58:49Z</time>
					</trkpt>
					<trkpt lat="45.582900" lon="4.406950">
						<ele>633</ele>
						<time>2022-06-17T15:59:08Z</time>
					</trkpt>
					<trkpt lat="45.582870" lon="4.407200">
						<ele>633</ele>
						<time>2022-06-17T15:59:31Z</time>
					</trkpt>
					<trkpt lat="45.582880" lon="4.407330">
						<ele>633</ele>
						<time>2022-06-17T15:59:44Z</time>
					</trkpt>
					<trkpt lat="45.582570" lon="4.407480">
						<ele>627</ele>
						<time>2022-06-17T16:00:27Z</time>
					</trkpt>
					<trkpt lat="45.582270" lon="4.407540">
						<ele>620</ele>
						<time>2022-06-17T16:01:08Z</time>
					</trkpt>
					<trkpt lat="45.582050" lon="4.407430">
						<ele>615</ele>
						<time>2022-06-17T16:01:39Z</time>
					</trkpt>
					<trkpt lat="45.581920" lon="4.407320">
						<ele>613</ele>
						<time>2022-06-17T16:01:59Z</time>
					</trkpt>
					<trkpt lat="45.581840" lon="4.407360">
						<ele>611</ele>
						<time>2022-06-17T16:02:10Z</time>
					</trkpt>
					<trkpt lat="45.581960" lon="4.407590">
						<ele>613</ele>
						<time>2022-06-17T16:02:37Z</time>
					</trkpt>
					<trkpt lat="45.582000" lon="4.407800">
						<ele>612</ele>
						<time>2022-06-17T16:02:57Z</time>
					</trkpt>
					<trkpt lat="45.582090" lon="4.408050">
						<ele>613</ele>
						<time>2022-06-17T16:03:24Z</time>
					</trkpt>
					<trkpt lat="45.582130" lon="4.408270">
						<ele>613</ele>
						<time>2022-06-17T16:03:45Z</time>
					</trkpt>
					<trkpt lat="45.582090" lon="4.408480">
						<ele>613</ele>
						<time>2022-06-17T16:04:05Z</time>
					</trkpt>
					<trkpt lat="45.581990" lon="4.408610">
						<ele>612</ele>
						<time>2022-06-17T16:04:23Z</time>
					</trkpt>
					<trkpt lat="45.581900" lon="4.408640">
						<ele>610</ele>
						<time>2022-06-17T16:04:36Z</time>
					</trkpt>
					<trkpt lat="45.581800" lon="4.408640">
						<ele>608</ele>
						<time>2022-06-17T16:04:49Z</time>
					</trkpt>
					<trkpt lat="45.580780" lon="4.408420">
						<ele>594</ele>
						<time>2022-06-17T16:07:07Z</time>
					</trkpt>
					<trkpt lat="45.580760" lon="4.408420">
						<ele>594</ele>
						<time>2022-06-17T16:07:09Z</time>
					</trkpt>
					<trkpt lat="45.580760" lon="4.408900">
						<ele>598</ele>
						<time>2022-06-17T16:07:54Z</time>
					</trkpt>
					<trkpt lat="45.580780" lon="4.409320">
						<ele>601</ele>
						<time>2022-06-17T16:08:33Z</time>
					</trkpt>
					<trkpt lat="45.580770" lon="4.409390">
						<ele>602</ele>
						<time>2022-06-17T16:08:40Z</time>
					</trkpt>
					<trkpt lat="45.580720" lon="4.409420">
						<ele>602</ele>
						<time>2022-06-17T16:08:47Z</time>
					</trkpt>
					<trkpt lat="45.580670" lon="4.409420">
						<ele>603</ele>
						<time>2022-06-17T16:08:54Z</time>
					</trkpt>
					<trkpt lat="45.580570" lon="4.409350">
						<ele>602</ele>
						<time>2022-06-17T16:09:09Z</time>
					</trkpt>
					<trkpt lat="45.580230" lon="4.409290">
						<ele>603</ele>
						<time>2022-06-17T16:09:55Z</time>
					</trkpt>
					<trkpt lat="45.580110" lon="4.409320">
						<ele>603</ele>
						<time>2022-06-17T16:10:11Z</time>
					</trkpt>
					<trkpt lat="45.580030" lon="4.409410">
						<ele>605</ele>
						<time>2022-06-17T16:10:24Z</time>
					</trkpt>
					<trkpt lat="45.580080" lon="4.408930">
						<ele>599</ele>
						<time>2022-06-17T16:11:10Z</time>
					</trkpt>
					<trkpt lat="45.580070" lon="4.408680">
						<ele>597</ele>
						<time>2022-06-17T16:11:33Z</time>
					</trkpt>
					<trkpt lat="45.579950" lon="4.408230">
						<ele>592</ele>
						<time>2022-06-17T16:12:18Z</time>
					</trkpt>
					<trkpt lat="45.579680" lon="4.407400">
						<ele>586</ele>
						<time>2022-06-17T16:13:44Z</time>
					</trkpt>
					<trkpt lat="45.579630" lon="4.406990">
						<ele>585</ele>
						<time>2022-06-17T16:14:22Z</time>
					</trkpt>
					<trkpt lat="45.579620" lon="4.406740">
						<ele>585</ele>
						<time>2022-06-17T16:14:46Z</time>
					</trkpt>
					<trkpt lat="45.579560" lon="4.406670">
						<ele>585</ele>
						<time>2022-06-17T16:14:56Z</time>
					</trkpt>
					<trkpt lat="45.579510" lon="4.406590">
						<ele>586</ele>
						<time>2022-06-17T16:15:06Z</time>
					</trkpt>
					<trkpt lat="45.579490" lon="4.406470">
						<ele>587</ele>
						<time>2022-06-17T16:15:18Z</time>
					</trkpt>
					<trkpt lat="45.579510" lon="4.406330">
						<ele>589</ele>
						<time>2022-06-17T16:15:31Z</time>
					</trkpt>
					<trkpt lat="45.579650" lon="4.406080">
						<ele>590</ele>
						<time>2022-06-17T16:16:01Z</time>
					</trkpt>
					<trkpt lat="45.579360" lon="4.405990">
						<ele>595</ele>
						<time>2022-06-17T16:16:41Z</time>
					</trkpt>
					<trkpt lat="45.579030" lon="4.406090">
						<ele>598</ele>
						<time>2022-06-17T16:17:26Z</time>
					</trkpt>
					<trkpt lat="45.578500" lon="4.406260">
						<ele>605</ele>
						<time>2022-06-17T16:18:38Z</time>
					</trkpt>
					<trkpt lat="45.578230" lon="4.406430">
						<ele>608</ele>
						<time>2022-06-17T16:19:17Z</time>
					</trkpt>
					<trkpt lat="45.577840" lon="4.406470">
						<ele>612</ele>
						<time>2022-06-17T16:20:10Z</time>
					</trkpt>
					<trkpt lat="45.577210" lon="4.406670">
						<ele>617</ele>
						<time>2022-06-17T16:21:36Z</time>
					</trkpt>
					<trkpt lat="45.577030" lon="4.405320">
						<ele>606</ele>
						<time>2022-06-17T16:23:44Z</time>
					</trkpt>
					<trkpt lat="45.576750" lon="4.405380">
						<ele>605</ele>
						<time>2022-06-17T16:24:22Z</time>
					</trkpt>
					<trkpt lat="45.576600" lon="4.405200">
						<ele>604</ele>
						<time>2022-06-17T16:24:48Z</time>
					</trkpt>
					<trkpt lat="45.576570" lon="4.405080">
						<ele>603</ele>
						<time>2022-06-17T16:25:00Z</time>
					</trkpt>
					<trkpt lat="45.576540" lon="4.405020">
						<ele>602</ele>
						<time>2022-06-17T16:25:07Z</time>
					</trkpt>
					<trkpt lat="45.576350" lon="4.404900">
						<ele>601</ele>
						<time>2022-06-17T16:25:35Z</time>
					</trkpt>
					<trkpt lat="45.576140" lon="4.404720">
						<ele>599</ele>
						<time>2022-06-17T16:26:07Z</time>
					</trkpt>
					<trkpt lat="45.576080" lon="4.404620">
						<ele>597</ele>
						<time>2022-06-17T16:26:20Z</time>
					</trkpt>
					<trkpt lat="45.575960" lon="4.404170">
						<ele>591</ele>
						<time>2022-06-17T16:27:05Z</time>
					</trkpt>
					<trkpt lat="45.575780" lon="4.403950">
						<ele>588</ele>
						<time>2022-06-17T16:27:36Z</time>
					</trkpt>
					<trkpt lat="45.575650" lon="4.403840">
						<ele>587</ele>
						<time>2022-06-17T16:27:56Z</time>
					</trkpt>
					<trkpt lat="45.575160" lon="4.403570">
						<ele>583</ele>
						<time>2022-06-17T16:29:06Z</time>
					</trkpt>
					<trkpt lat="45.575000" lon="4.403530">
						<ele>583</ele>
						<time>2022-06-17T16:29:28Z</time>
					</trkpt>
					<trkpt lat="45.574780" lon="4.403510">
						<ele>583</ele>
						<time>2022-06-17T16:29:57Z</time>
					</trkpt>
					<trkpt lat="45.574510" lon="4.403540">
						<ele>583</ele>
						<time>2022-06-17T16:30:34Z</time>
					</trkpt>
					<trkpt lat="45.574410" lon="4.403600">
						<ele>584</ele>
						<time>2022-06-17T16:30:48Z</time>
					</trkpt>
					<trkpt lat="45.574310" lon="4.403700">
						<ele>584</ele>
						<time>2022-06-17T16:31:04Z</time>
					</trkpt>
					<trkpt lat="45.574110" lon="4.403980">
						<ele>585</ele>
						<time>2022-06-17T16:31:42Z</time>
					</trkpt>
					<trkpt lat="45.574060" lon="4.404010">
						<ele>585</ele>
						<time>2022-06-17T16:31:49Z</time>
					</trkpt>
					<trkpt lat="45.574000" lon="4.404020">
						<ele>586</ele>
						<time>2022-06-17T16:31:57Z</time>
					</trkpt>
					<trkpt lat="45.573930" lon="4.403930">
						<ele>586</ele>
						<time>2022-06-17T16:32:10Z</time>
					</trkpt>
					<trkpt lat="45.573910" lon="4.403850">
						<ele>587</ele>
						<time>2022-06-17T16:32:18Z</time>
					</trkpt>
					<trkpt lat="45.573890" lon="4.403320">
						<ele>587</ele>
						<time>2022-06-17T16:33:07Z</time>
					</trkpt>
					<trkpt lat="45.573860" lon="4.403210">
						<ele>588</ele>
						<time>2022-06-17T16:33:18Z</time>
					</trkpt>
					<trkpt lat="45.573790" lon="4.403050">
						<ele>589</ele>
						<time>2022-06-17T16:33:36Z</time>
					</trkpt>
					<trkpt lat="45.573630" lon="4.402800">
						<ele>591</ele>
						<time>2022-06-17T16:34:07Z</time>
					</trkpt>
					<trkpt lat="45.573410" lon="4.402510">
						<ele>595</ele>
						<time>2022-06-17T16:34:47Z</time>
					</trkpt>
					<trkpt lat="45.573330" lon="4.402450">
						<ele>596</ele>
						<time>2022-06-17T16:34:59Z</time>
					</trkpt>
					<trkpt lat="45.573220" lon="4.402390">
						<ele>596</ele>
						<time>2022-06-17T16:35:15Z</time>
					</trkpt>
					<trkpt lat="45.573000" lon="4.402320">
						<ele>597</ele>
						<time>2022-06-17T16:35:45Z</time>
					</trkpt>
					<trkpt lat="45.572960" lon="4.402200">
						<ele>596</ele>
						<time>2022-06-17T16:35:58Z</time>
					</trkpt>
					<trkpt lat="45.572900" lon="4.402100">
						<ele>596</ele>
						<time>2022-06-17T16:36:10Z</time>
					</trkpt>
					<trkpt lat="45.572800" lon="4.402010">
						<ele>596</ele>
						<time>2022-06-17T16:36:26Z</time>
					</trkpt>
					<trkpt lat="45.572620" lon="4.401920">
						<ele>596</ele>
						<time>2022-06-17T16:36:51Z</time>
					</trkpt>
					<trkpt lat="45.572560" lon="4.401850">
						<ele>595</ele>
						<time>2022-06-17T16:37:02Z</time>
					</trkpt>
					<trkpt lat="45.572530" lon="4.401780">
						<ele>595</ele>
						<time>2022-06-17T16:37:09Z</time>
					</trkpt>
					<trkpt lat="45.572510" lon="4.401690">
						<ele>594</ele>
						<time>2022-06-17T16:37:18Z</time>
					</trkpt>
					<trkpt lat="45.572550" lon="4.401480">
						<ele>592</ele>
						<time>2022-06-17T16:37:38Z</time>
					</trkpt>
					<trkpt lat="45.572540" lon="4.401410">
						<ele>592</ele>
						<time>2022-06-17T16:37:45Z</time>
					</trkpt>
					<trkpt lat="45.572510" lon="4.401360">
						<ele>592</ele>
						<time>2022-06-17T16:37:51Z</time>
					</trkpt>
					<trkpt lat="45.572370" lon="4.401290">
						<ele>590</ele>
						<time>2022-06-17T16:38:11Z</time>
					</trkpt>
					<trkpt lat="45.572280" lon="4.401200">
						<ele>589</ele>
						<time>2022-06-17T16:38:26Z</time>
					</trkpt>
					<trkpt lat="45.572000" lon="4.400720">
						<ele>584</ele>
						<time>2022-06-17T16:39:24Z</time>
					</trkpt>
					<trkpt lat="45.571980" lon="4.400600">
						<ele>584</ele>
						<time>2022-06-17T16:39:36Z</time>
					</trkpt>
					<trkpt lat="45.571990" lon="4.400500">
						<ele>584</ele>
						<time>2022-06-17T16:39:45Z</time>
					</trkpt>
					<trkpt lat="45.572040" lon="4.400350">
						<ele>584</ele>
						<time>2022-06-17T16:40:00Z</time>
					</trkpt>
					<trkpt lat="45.572630" lon="4.399220">
						<ele>581</ele>
						<time>2022-06-17T16:42:12Z</time>
					</trkpt>
					<trkpt lat="45.572610" lon="4.399220">
						<ele>581</ele>
						<time>2022-06-17T16:42:15Z</time>
					</trkpt>
					<trkpt lat="45.572630" lon="4.399220">
						<ele>581</ele>
						<time>2022-06-17T16:42:17Z</time>
					</trkpt>
					<trkpt lat="45.572760" lon="4.399240">
						<ele>582</ele>
						<time>2022-06-17T16:42:35Z</time>
					</trkpt>
					<trkpt lat="45.573040" lon="4.399160">
						<ele>582</ele>
						<time>2022-06-17T16:43:13Z</time>
					</trkpt>
					<trkpt lat="45.573140" lon="4.398960">
						<ele>584</ele>
						<time>2022-06-17T16:43:36Z</time>
					</trkpt>
					<trkpt lat="45.573300" lon="4.398890">
						<ele>585</ele>
						<time>2022-06-17T16:43:58Z</time>
					</trkpt>
					<trkpt lat="45.573510" lon="4.398900">
						<ele>586</ele>
						<time>2022-06-17T16:44:26Z</time>
					</trkpt>
					<trkpt lat="45.573670" lon="4.398940">
						<ele>588</ele>
						<time>2022-06-17T16:44:48Z</time>
					</trkpt>
					<trkpt lat="45.573790" lon="4.399050">
						<ele>588</ele>
						<time>2022-06-17T16:45:07Z</time>
					</trkpt>
					<trkpt lat="45.573950" lon="4.399070">
						<ele>589</ele>
						<time>2022-06-17T16:45:29Z</time>
					</trkpt>
					<trkpt lat="45.574140" lon="4.399030">
						<ele>591</ele>
						<time>2022-06-17T16:45:54Z</time>
					</trkpt>
					<trkpt lat="45.574300" lon="4.399060">
						<ele>592</ele>
						<time>2022-06-17T16:46:16Z</time>
					</trkpt>
					<trkpt lat="45.574380" lon="4.399100">
						<ele>593</ele>
						<time>2022-06-17T16:46:27Z</time>
					</trkpt>
					<trkpt lat="45.574450" lon="4.399030">
						<ele>594</ele>
						<time>2022-06-17T16:46:38Z</time>
					</trkpt>
					<trkpt lat="45.574460" lon="4.398430">
						<ele>601</ele>
						<time>2022-06-17T16:47:34Z</time>
					</trkpt>
					<trkpt lat="45.574490" lon="4.398290">
						<ele>602</ele>
						<time>2022-06-17T16:47:48Z</time>
					</trkpt>
					<trkpt lat="45.574650" lon="4.397920">
						<ele>609</ele>
						<time>2022-06-17T16:48:29Z</time>
					</trkpt>
					<trkpt lat="45.574770" lon="4.397760">
						<ele>613</ele>
						<time>2022-06-17T16:48:51Z</time>
					</trkpt>
					<trkpt lat="45.575080" lon="4.397840">
						<ele>616</ele>
						<time>2022-06-17T16:49:33Z</time>
					</trkpt>
					<trkpt lat="45.575180" lon="4.397840">
						<ele>617</ele>
						<time>2022-06-17T16:49:46Z</time>
					</trkpt>
					<trkpt lat="45.575420" lon="4.397640">
						<ele>622</ele>
						<time>2022-06-17T16:50:23Z</time>
					</trkpt>
					<trkpt lat="45.575560" lon="4.397270">
						<ele>627</ele>
						<time>2022-06-17T16:51:02Z</time>
					</trkpt>
					<trkpt lat="45.575610" lon="4.396800">
						<ele>631</ele>
						<time>2022-06-17T16:51:47Z</time>
					</trkpt>
					<trkpt lat="45.575650" lon="4.396680">
						<ele>633</ele>
						<time>2022-06-17T16:51:59Z</time>
					</trkpt>
					<trkpt lat="45.575570" lon="4.396410">
						<ele>633</ele>
						<time>2022-06-17T16:52:27Z</time>
					</trkpt>
					<trkpt lat="45.575470" lon="4.396120">
						<ele>633</ele>
						<time>2022-06-17T16:52:57Z</time>
					</trkpt>
					<trkpt lat="45.575500" lon="4.395780">
						<ele>634</ele>
						<time>2022-06-17T16:53:29Z</time>
					</trkpt>
					<trkpt lat="45.575570" lon="4.395560">
						<ele>634</ele>
						<time>2022-06-17T16:53:51Z</time>
					</trkpt>
					<trkpt lat="45.575580" lon="4.394880">
						<ele>633</ele>
						<time>2022-06-17T16:54:55Z</time>
					</trkpt>
					<trkpt lat="45.575650" lon="4.394280">
						<ele>632</ele>
						<time>2022-06-17T16:55:52Z</time>
					</trkpt>
					<trkpt lat="45.575710" lon="4.394040">
						<ele>633</ele>
						<time>2022-06-17T16:56:16Z</time>
					</trkpt>
					<trkpt lat="45.575880" lon="4.393510">
						<ele>635</ele>
						<time>2022-06-17T16:57:10Z</time>
					</trkpt>
					<trkpt lat="45.576110" lon="4.393130">
						<ele>638</ele>
						<time>2022-06-17T16:57:57Z</time>
					</trkpt>
					<trkpt lat="45.576180" lon="4.392960">
						<ele>639</ele>
						<time>2022-06-17T16:58:15Z</time>
					</trkpt>
					<trkpt lat="45.576320" lon="4.392710">
						<ele>642</ele>
						<time>2022-06-17T16:58:45Z</time>
					</trkpt>
					<trkpt lat="45.576690" lon="4.391700">
						<ele>646</ele>
						<time>2022-06-17T17:00:32Z</time>
					</trkpt>
					<trkpt lat="45.576800" lon="4.391270">
						<ele>644</ele>
						<time>2022-06-17T17:01:14Z</time>
					</trkpt>
					<trkpt lat="45.576750" lon="4.390490">
						<ele>645</ele>
						<time>2022-06-17T17:02:28Z</time>
					</trkpt>
					<trkpt lat="45.576590" lon="4.389900">
						<ele>645</ele>
						<time>2022-06-17T17:03:27Z</time>
					</trkpt>
					<trkpt lat="45.576430" lon="4.389620">
						<ele>645</ele>
						<time>2022-06-17T17:04:01Z</time>
					</trkpt>
					<trkpt lat="45.576140" lon="4.389250">
						<ele>645</ele>
						<time>2022-06-17T17:04:52Z</time>
					</trkpt>
					<trkpt lat="45.575970" lon="4.388850">
						<ele>644</ele>
						<time>2022-06-17T17:05:36Z</time>
					</trkpt>
					<trkpt lat="45.575950" lon="4.388620">
						<ele>643</ele>
						<time>2022-06-17T17:05:58Z</time>
					</trkpt>
					<trkpt lat="45.575820" lon="4.387860">
						<ele>643</ele>
						<time>2022-06-17T17:07:11Z</time>
					</trkpt>
					<trkpt lat="45.575790" lon="4.387870">
						<ele>643</ele>
						<time>2022-06-17T17:07:15Z</time>
					</trkpt>
					<trkpt lat="45.575820" lon="4.387860">
						<ele>643</ele>
						<time>2022-06-17T17:07:19Z</time>
					</trkpt>
					<trkpt lat="45.575600" lon="4.386970">
						<ele>647</ele>
						<time>2022-06-17T17:08:47Z</time>
					</trkpt>
					<trkpt lat="45.574930" lon="4.383530">
						<ele>664</ele>
						<time>2022-06-17T17:14:21Z</time>
					</trkpt>
					<trkpt lat="45.574960" lon="4.383180">
						<ele>665</ele>
						<time>2022-06-17T17:14:54Z</time>
					</trkpt>
					<trkpt lat="45.575020" lon="4.383240">
						<ele>665</ele>
						<time>2022-06-17T17:15:03Z</time>
					</trkpt>
					<trkpt lat="45.576290" lon="4.382120">
						<ele>658</ele>
						<time>2022-06-17T17:18:23Z</time>
					</trkpt>
					<trkpt lat="45.576790" lon="4.382980">
						<ele>659</ele>
						<time>2022-06-17T17:20:07Z</time>
					</trkpt>
					<trkpt lat="45.576870" lon="4.383810">
						<ele>656</ele>
						<time>2022-06-17T17:21:25Z</time>
					</trkpt>
					<trkpt lat="45.577130" lon="4.384580">
						<ele>648</ele>
						<time>2022-06-17T17:22:45Z</time>
					</trkpt>
					<trkpt lat="45.578130" lon="4.384950">
						<ele>638</ele>
						<time>2022-06-17T17:25:03Z</time>
					</trkpt>
					<trkpt lat="45.579220" lon="4.385610">
						<ele>625</ele>
						<time>2022-06-17T17:27:41Z</time>
					</trkpt>
					<trkpt lat="45.579460" lon="4.385920">
						<ele>620</ele>
						<time>2022-06-17T17:28:24Z</time>
					</trkpt>
					<trkpt lat="45.579740" lon="4.385920">
						<ele>618</ele>
						<time>2022-06-17T17:29:02Z</time>
					</trkpt>
					<trkpt lat="45.579660" lon="4.386110">
						<ele>617</ele>
						<time>2022-06-17T17:29:22Z</time>
					</trkpt>
					<trkpt lat="45.579520" lon="4.386630">
						<ele>615</ele>
						<time>2022-06-17T17:30:14Z</time>
					</trkpt>
					<trkpt lat="45.579450" lon="4.386830">
						<ele>615</ele>
						<time>2022-06-17T17:30:35Z</time>
					</trkpt>
					<trkpt lat="45.579410" lon="4.387030">
						<ele>616</ele>
						<time>2022-06-17T17:30:55Z</time>
					</trkpt>
					<trkpt lat="45.579600" lon="4.386920">
						<ele>614</ele>
						<time>2022-06-17T17:31:22Z</time>
					</trkpt>
					<trkpt lat="45.580460" lon="4.387020">
						<ele>607</ele>
						<time>2022-06-17T17:33:17Z</time>
					</trkpt>
					<trkpt lat="45.580730" lon="4.387100">
						<ele>604</ele>
						<time>2022-06-17T17:33:54Z</time>
					</trkpt>
					<trkpt lat="45.580910" lon="4.387330">
						<ele>603</ele>
						<time>2022-06-17T17:34:26Z</time>
					</trkpt>
					<trkpt lat="45.581360" lon="4.387630">
						<ele>600</ele>
						<time>2022-06-17T17:35:32Z</time>
					</trkpt>
					<trkpt lat="45.581940" lon="4.387650">
						<ele>597</ele>
						<time>2022-06-17T17:36:50Z</time>
					</trkpt>
					<trkpt lat="45.582390" lon="4.387620">
						<ele>595</ele>
						<time>2022-06-17T17:37:50Z</time>
					</trkpt>
					<trkpt lat="45.582700" lon="4.387530">
						<ele>593</ele>
						<time>2022-06-17T17:38:32Z</time>
					</trkpt>
					<trkpt lat="45.582940" lon="4.387350">
						<ele>592</ele>
						<time>2022-06-17T17:39:08Z</time>
					</trkpt>
					<trkpt lat="45.583040" lon="4.387320">
						<ele>592</ele>
						<time>2022-06-17T17:39:22Z</time>
					</trkpt>
					<trkpt lat="45.583850" lon="4.387050">
						<ele>586</ele>
						<time>2022-06-17T17:41:13Z</time>
					</trkpt>
					<trkpt lat="45.583920" lon="4.387010">
						<ele>585</ele>
						<time>2022-06-17T17:41:23Z</time>
					</trkpt>
					<trkpt lat="45.584110" lon="4.387090">
						<ele>584</ele>
						<time>2022-06-17T17:41:49Z</time>
					</trkpt>
					<trkpt lat="45.584210" lon="4.387090">
						<ele>583</ele>
						<time>2022-06-17T17:42:03Z</time>
					</trkpt>
					<trkpt lat="45.584380" lon="4.387240">
						<ele>581</ele>
						<time>2022-06-17T17:42:29Z</time>
					</trkpt>
					<trkpt lat="45.584540" lon="4.387430">
						<ele>579</ele>
						<time>2022-06-17T17:42:57Z</time>
					</trkpt>
					<trkpt lat="45.584960" lon="4.387540">
						<ele>571</ele>
						<time>2022-06-17T17:43:54Z</time>
					</trkpt>
					<trkpt lat="45.585120" lon="4.387630">
						<ele>566</ele>
						<time>2022-06-17T17:44:17Z</time>
					</trkpt>
					<trkpt lat="45.585000" lon="4.388080">
						<ele>567</ele>
						<time>2022-06-17T17:45:02Z</time>
					</trkpt>
					<trkpt lat="45.585290" lon="4.388410">
						<ele>557</ele>
						<time>2022-06-17T17:45:52Z</time>
					</trkpt>
					<trkpt lat="45.585300" lon="4.389590">
						<ele>547</ele>
						<time>2022-06-17T17:47:42Z</time>
					</trkpt>
					<trkpt lat="45.585330" lon="4.390080">
						<ele>544</ele>
						<time>2022-06-17T17:48:28Z</time>
					</trkpt>
					<trkpt lat="45.585420" lon="4.390350">
						<ele>543</ele>
						<time>2022-06-17T17:48:56Z</time>
					</trkpt>
					<trkpt lat="45.585600" lon="4.390530">
						<ele>541</ele>
						<time>2022-06-17T17:49:25Z</time>
					</trkpt>
					<trkpt lat="45.585770" lon="4.390560">
						<ele>538</ele>
						<time>2022-06-17T17:49:48Z</time>
					</trkpt>
					<trkpt lat="45.586010" lon="4.390550">
						<ele>539</ele>
						<time>2022-06-17T17:50:20Z</time>
					</trkpt>
					<trkpt lat="45.586150" lon="4.390960">
						<ele>541</ele>
						<time>2022-06-17T17:51:02Z</time>
					</trkpt>
					<trkpt lat="45.586280" lon="4.391260">
						<ele>544</ele>
						<time>2022-06-17T17:51:35Z</time>
					</trkpt>
					<trkpt lat="45.586330" lon="4.391740">
						<ele>546</ele>
						<time>2022-06-17T17:52:21Z</time>
					</trkpt>
					<trkpt lat="45.586280" lon="4.392020">
						<ele>547</ele>
						<time>2022-06-17T17:52:48Z</time>
					</trkpt>
					<trkpt lat="45.586310" lon="4.392410">
						<ele>549</ele>
						<time>2022-06-17T17:53:24Z</time>
					</trkpt>
					<trkpt lat="45.586450" lon="4.392450">
						<ele>552</ele>
						<time>2022-06-17T17:53:43Z</time>
					</trkpt>
					<trkpt lat="45.586950" lon="4.392910">
						<ele>564</ele>
						<time>2022-06-17T17:55:03Z</time>
					</trkpt>
					<trkpt lat="45.587260" lon="4.392990">
						<ele>571</ele>
						<time>2022-06-17T17:55:45Z</time>
					</trkpt>
					<trkpt lat="45.587270" lon="4.392990">
						<ele>571</ele>
						<time>2022-06-17T17:55:46Z</time>
					</trkpt>
					<trkpt lat="45.587560" lon="4.393060">
						<ele>577</ele>
						<time>2022-06-17T17:56:25Z</time>
					</trkpt>
					<trkpt lat="45.587860" lon="4.393190">
						<ele>582</ele>
						<time>2022-06-17T17:57:07Z</time>
					</trkpt>
					<trkpt lat="45.587990" lon="4.393220">
						<ele>584</ele>
						<time>2022-06-17T17:57:25Z</time>
					</trkpt>
					<trkpt lat="45.588580" lon="4.393320">
						<ele>589</ele>
						<time>2022-06-17T17:58:44Z</time>
					</trkpt>
					<trkpt lat="45.589140" lon="4.393350">
						<ele>589</ele>
						<time>2022-06-17T17:59:59Z</time>
					</trkpt>
					<trkpt lat="45.589170" lon="4.393870">
						<ele>588</ele>
						<time>2022-06-17T18:00:48Z</time>
					</trkpt>
					<trkpt lat="45.589480" lon="4.395910">
						<ele>594</ele>
						<time>2022-06-17T18:04:03Z</time>
					</trkpt>
					<trkpt lat="45.589490" lon="4.396070">
						<ele>594</ele>
						<time>2022-06-17T18:04:18Z</time>
					</trkpt>
					<trkpt lat="45.589350" lon="4.398480">
						<ele>604</ele>
						<time>2022-06-17T18:08:03Z</time>
					</trkpt>
					<trkpt lat="45.588650" lon="4.400290">
						<ele>618</ele>
						<time>2022-06-17T18:11:17Z</time>
					</trkpt>
					<trkpt lat="45.588380" lon="4.400570">
						<ele>620</ele>
						<time>2022-06-17T18:12:01Z</time>
					</trkpt>
					</trkseg>
				</trk>
			</gpx>